createdAt,value
2023-04-18T00:01:25.995Z,99962.94
2023-04-18T00:03:53.774Z,99955.88
2023-04-18T00:06:22.330Z,99954.22
2023-04-18T00:08:49.425Z,99961.56
2023-04-18T00:11:16.474Z,99965.59
2023-04-18T00:13:44.509Z,99959.59
2023-04-18T00:16:13.381Z,99959.84
2023-04-18T00:18:40.769Z,99949.75
2023-04-18T00:21:08.809Z,99955.44
2023-04-18T00:23:36.196Z,99963.25
2023-04-18T00:26:03.526Z,99958.31
2023-04-18T00:28:30.450Z,99957.16
2023-04-18T00:30:57.498Z,99963.66
2023-04-18T00:33:24.462Z,99953.00
2023-04-18T00:35:52.665Z,99957.09
2023-04-18T00:38:19.535Z,99959.56
2023-04-18T00:40:48.433Z,99958.75
2023-04-18T00:43:17.023Z,99957.94
2023-04-18T00:45:44.733Z,99960.38
2023-04-18T00:48:11.966Z,99962.28
2023-04-18T00:50:40.708Z,99953.31
2023-04-18T00:53:10.621Z,99954.97
2023-04-18T00:55:38.680Z,99961.22
2023-04-18T00:58:06.454Z,99946.00
2023-04-18T01:00:33.407Z,99944.34
2023-04-18T01:03:01.083Z,99948.47
2023-04-18T01:05:28.334Z,99947.38
2023-04-18T01:08:01.132Z,99952.00
2023-04-18T01:10:29.275Z,99945.75
2023-04-18T01:13:12.480Z,99939.25
2023-04-18T01:15:44.261Z,99939.50
2023-04-18T01:18:13.325Z,99938.44
2023-04-18T01:20:43.815Z,99939.25
2023-04-18T01:23:10.859Z,99936.53
2023-04-18T01:25:39.115Z,99939.50
2023-04-18T01:28:06.648Z,99941.16
2023-04-18T01:30:34.755Z,99942.22
2023-04-18T01:33:03.136Z,99934.56
2023-04-18T01:35:30.705Z,99933.50
2023-04-18T01:37:57.740Z,99940.56
2023-04-18T01:40:24.885Z,99941.66
2023-04-18T01:42:53.502Z,99933.75
2023-04-18T01:45:20.714Z,99939.75
2023-04-18T01:47:47.703Z,99940.81
2023-04-18T01:50:14.818Z,99942.47
2023-04-18T01:52:43.207Z,99940.56
2023-04-18T01:55:10.487Z,99941.41
2023-04-18T01:57:37.438Z,99941.66
2023-04-18T02:00:06.669Z,99939.75
2023-04-18T02:02:43.146Z,99937.84
2023-04-18T02:05:10.929Z,99933.50
2023-04-18T02:07:41.151Z,99937.78
2023-04-18T02:10:10.548Z,99935.91
2023-04-18T02:12:37.697Z,99936.97
2023-04-18T02:15:05.355Z,99932.38
2023-04-18T02:17:36.394Z,99929.66
2023-04-18T02:20:04.027Z,99922.59
2023-04-18T02:22:32.073Z,99931.81
2023-04-18T02:25:00.817Z,99925.31
2023-04-18T02:27:28.010Z,99932.63
2023-04-18T02:29:57.307Z,99926.13
2023-04-18T02:32:24.898Z,99934.25
2023-04-18T02:34:51.889Z,99934.75
2023-04-18T02:37:19.081Z,99932.06
2023-04-18T02:39:46.049Z,99930.66
2023-04-18T02:42:12.922Z,99923.84
2023-04-18T02:44:39.875Z,99928.44
2023-04-18T02:47:07.095Z,99928.97
2023-04-18T02:49:36.716Z,99929.53
2023-04-18T02:52:03.942Z,99928.72
2023-04-18T02:54:31.096Z,99923.28
2023-04-18T02:57:06.260Z,99919.50
2023-04-18T02:59:57.723Z,99926.00
2023-04-18T03:02:51.253Z,99928.13
2023-04-18T03:05:32.197Z,99934.63
2023-04-18T03:08:02.271Z,99928.34
2023-04-18T03:10:29.835Z,99922.94
2023-04-18T03:12:56.800Z,99923.78
2023-04-18T03:15:23.965Z,99929.22
2023-04-18T03:17:51.387Z,99919.75
2023-04-18T03:20:20.976Z,99925.25
2023-04-18T03:22:48.031Z,99919.06
2023-04-18T03:25:18.919Z,99921.84
2023-04-18T03:27:51.393Z,99923.22
2023-04-18T03:30:20.814Z,99921.06
2023-04-18T03:32:56.325Z,99921.13
2023-04-18T03:35:23.673Z,99920.97
2023-04-18T03:37:50.978Z,99929.19
2023-04-18T03:40:25.161Z,99918.94
2023-04-18T03:42:55.053Z,99923.09
2023-04-18T03:45:22.034Z,99934.34
2023-04-18T03:47:50.017Z,99924.06
2023-04-18T03:50:17.684Z,99935.03
2023-04-18T03:52:46.277Z,99924.22
2023-04-18T03:55:15.792Z,99927.50
2023-04-18T03:57:42.875Z,99935.41
2023-04-18T04:00:15.819Z,99928.84
2023-04-18T04:02:42.910Z,99929.41
2023-04-18T04:05:15.763Z,99925.03
2023-04-18T04:07:43.377Z,99931.53
2023-04-18T04:10:10.972Z,99925.28
2023-04-18T04:12:37.919Z,99933.75
2023-04-18T04:15:05.605Z,99932.41
2023-04-18T04:17:33.242Z,99927.06
2023-04-18T04:20:00.244Z,99928.50
2023-04-18T04:22:28.484Z,99935.63
2023-04-18T04:24:57.862Z,99930.75
2023-04-18T04:27:31.244Z,99931.72
2023-04-18T04:29:58.196Z,99927.91
2023-04-18T04:32:25.549Z,99938.56
2023-04-18T04:34:53.712Z,99938.06
2023-04-18T04:37:21.209Z,99938.34
2023-04-18T04:40:00.716Z,99939.22
2023-04-18T04:42:41.239Z,99935.72
2023-04-18T04:45:15.386Z,99945.84
2023-04-18T04:47:42.355Z,99946.16
2023-04-18T04:50:14.841Z,99934.44
2023-04-18T04:52:42.838Z,99940.22
2023-04-18T04:55:10.163Z,99950.59
2023-04-18T04:57:38.011Z,99938.38
2023-04-18T05:00:21.043Z,99939.47
2023-04-18T05:02:49.460Z,99938.94
2023-04-18T05:05:16.727Z,99939.03
2023-04-18T05:07:43.680Z,99934.44
2023-04-18T05:10:11.026Z,99936.09
2023-04-18T05:12:38.000Z,99934.22
2023-04-18T05:15:05.567Z,99935.06
2023-04-18T05:17:32.659Z,99943.03
2023-04-18T05:19:59.586Z,99937.88
2023-04-18T05:22:26.748Z,99934.09
2023-04-18T05:24:53.772Z,99946.09
2023-04-18T05:27:21.815Z,99933.59
2023-04-18T05:29:50.344Z,99941.78
2023-04-18T05:32:17.510Z,99939.94
2023-04-18T05:34:44.557Z,99939.41
2023-04-18T05:37:11.658Z,99941.31
2023-04-18T05:39:38.834Z,99931.78
2023-04-18T05:42:05.961Z,99946.22
2023-04-18T05:44:33.094Z,99936.72
2023-04-18T05:47:00.098Z,99936.44
2023-04-18T05:49:27.081Z,99938.13
2023-04-18T05:51:54.020Z,99944.88
2023-04-18T05:54:25.234Z,99937.53
2023-04-18T05:56:52.352Z,99936.22
2023-04-18T05:59:20.712Z,99934.88
2023-04-18T06:01:47.775Z,99941.75
2023-04-18T06:04:16.581Z,99937.97
2023-04-18T06:06:43.816Z,99943.19
2023-04-18T06:09:11.294Z,99939.41
2023-04-18T06:11:38.614Z,99945.72
2023-04-18T06:14:05.738Z,99937.53
2023-04-18T06:16:32.844Z,99941.09
2023-04-18T06:19:01.344Z,99943.84
2023-04-18T06:21:28.533Z,99942.19
2023-04-18T06:23:55.739Z,99942.72
2023-04-18T06:26:22.769Z,99933.19
2023-04-18T06:28:49.809Z,99938.66
2023-04-18T06:31:16.945Z,99936.47
2023-04-18T06:33:44.081Z,99944.34
2023-04-18T06:36:11.118Z,99945.66
2023-04-18T06:38:38.166Z,99936.63
2023-04-18T06:41:05.236Z,99931.44
2023-04-18T06:43:32.229Z,99932.50
2023-04-18T06:45:59.710Z,99930.06
2023-04-18T06:48:26.756Z,99944.19
2023-04-18T06:50:53.744Z,99931.88
2023-04-18T06:53:21.106Z,99933.69
2023-04-18T06:55:48.353Z,99939.06
2023-04-18T06:58:16.926Z,99934.03
2023-04-18T07:00:44.053Z,99939.13
2023-04-18T07:03:13.689Z,99940.19
2023-04-18T07:05:41.333Z,99936.00
2023-04-18T07:08:14.082Z,99929.91
2023-04-18T07:10:41.477Z,99932.00
2023-04-18T07:13:08.646Z,99939.34
2023-04-18T07:15:36.296Z,99931.84
2023-04-18T07:18:03.709Z,99927.97
2023-04-18T07:20:31.395Z,99930.72
2023-04-18T07:22:58.405Z,99937.28
2023-04-18T07:25:25.755Z,99937.84
2023-04-18T07:27:52.853Z,99935.38
2023-04-18T07:30:19.926Z,99941.03
2023-04-18T07:32:56.049Z,99946.28
2023-04-18T07:35:26.034Z,99938.50
2023-04-18T07:37:54.243Z,99939.38
2023-04-18T07:40:21.774Z,99941.09
2023-04-18T07:42:48.906Z,99932.41
2023-04-18T07:45:16.229Z,99936.50
2023-04-18T07:47:43.366Z,99929.66
2023-04-18T07:50:10.865Z,99929.09
2023-04-18T07:52:39.314Z,99934.56
2023-04-18T07:55:07.169Z,99938.88
2023-04-18T07:57:34.405Z,99936.34
2023-04-18T08:00:01.421Z,99931.34
2023-04-18T08:02:39.930Z,99931.16
2023-04-18T08:05:12.670Z,99932.88
2023-04-18T08:07:39.759Z,99932.38
2023-04-18T08:10:09.754Z,99931.13
2023-04-18T08:12:36.896Z,99919.03
2023-04-18T08:15:04.632Z,99929.34
2023-04-18T08:17:33.369Z,99934.88
2023-04-18T08:20:05.164Z,99927.13
2023-04-18T08:22:32.162Z,99927.34
2023-04-18T08:25:04.980Z,99934.38
2023-04-18T08:27:32.750Z,99933.41
2023-04-18T08:30:00.817Z,99940.41
2023-04-18T08:32:27.973Z,99923.91
2023-04-18T08:34:58.370Z,99934.34
2023-04-18T08:37:25.620Z,99931.66
2023-04-18T08:39:52.669Z,99933.03
2023-04-18T08:42:19.927Z,99928.97
2023-04-18T08:44:47.334Z,99921.56
2023-04-18T08:47:16.192Z,99923.22
2023-04-18T08:49:48.438Z,99922.34
2023-04-18T08:52:24.139Z,99925.88
2023-04-18T08:54:51.205Z,99923.13
2023-04-18T08:57:27.443Z,99927.78
2023-04-18T08:59:55.550Z,99919.81
2023-04-18T09:02:35.294Z,99925.28
2023-04-18T09:05:11.639Z,99931.28
2023-04-18T09:07:38.837Z,99920.97
2023-04-18T09:10:06.308Z,99927.25
2023-04-18T09:12:34.627Z,99921.53
2023-04-18T09:15:15.635Z,99922.88
2023-04-18T09:17:51.064Z,99924.59
2023-04-18T09:20:42.429Z,99924.66
2023-04-18T09:23:11.721Z,99938.72
2023-04-18T09:25:45.130Z,99910.63
2023-04-18T09:28:30.724Z,99925.16
2023-04-18T09:31:09.476Z,99918.06
2023-04-18T09:33:37.157Z,99920.81
2023-04-18T09:36:24.799Z,99929.00
2023-04-18T09:38:56.311Z,99933.13
2023-04-18T09:41:24.443Z,99930.44
2023-04-18T09:44:12.372Z,99926.63
2023-04-18T09:46:41.493Z,99929.06
2023-04-18T09:49:10.421Z,99924.72
2023-04-18T09:51:40.407Z,99918.97
2023-04-18T09:54:09.731Z,99922.25
2023-04-18T09:56:39.312Z,99926.53
2023-04-18T09:59:10.623Z,99921.31
2023-04-18T10:01:40.186Z,99927.84
2023-04-18T10:04:08.238Z,99925.06
2023-04-18T10:06:42.102Z,99931.91
2023-04-18T10:09:10.334Z,99936.78
2023-04-18T10:11:37.592Z,99934.59
2023-04-18T10:14:12.904Z,99936.19
2023-04-18T10:16:41.396Z,99937.56
2023-04-18T10:19:26.197Z,99939.97
2023-04-18T10:21:57.121Z,99923.03
2023-04-18T10:24:59.515Z,99938.06
2023-04-18T10:27:48.769Z,99932.63
2023-04-18T10:30:16.943Z,99931.03
2023-04-18T10:32:45.973Z,99930.50
2023-04-18T10:35:13.239Z,99935.69
2023-04-18T10:37:52.702Z,99934.06
2023-04-18T10:40:46.018Z,99936.25
2023-04-18T10:43:13.503Z,99938.19
2023-04-18T10:45:43.493Z,99932.75
2023-04-18T10:48:32.919Z,99933.00
2023-04-18T10:51:20.734Z,99931.88
2023-04-18T10:53:54.278Z,99934.09
2023-04-18T10:56:24.424Z,99931.34
2023-04-18T10:58:55.622Z,99920.16
2023-04-18T11:01:32.464Z,99935.41
2023-04-18T11:04:00.776Z,99929.41
2023-04-18T11:06:28.626Z,99931.63
2023-04-18T11:09:13.860Z,99927.50
2023-04-18T11:11:41.878Z,99930.53
2023-04-18T11:14:08.836Z,99923.41
2023-04-18T11:16:36.149Z,99919.34
2023-04-18T11:19:25.843Z,99927.16
2023-04-18T11:21:53.067Z,99921.94
2023-04-18T11:24:24.333Z,99928.44
2023-04-18T11:26:56.180Z,99930.50
2023-04-18T11:29:23.855Z,99929.47
2023-04-18T11:31:55.287Z,99920.59
2023-04-18T11:34:30.545Z,99923.50
2023-04-18T11:36:59.627Z,99927.53
2023-04-18T11:39:29.293Z,99916.81
2023-04-18T11:41:57.718Z,99909.63
2023-04-18T11:44:25.333Z,99921.38
2023-04-18T11:46:55.917Z,99918.13
2023-04-18T11:49:31.817Z,99920.59
2023-04-18T11:52:00.050Z,99915.50
2023-04-18T11:54:44.510Z,99907.06
2023-04-18T11:57:26.655Z,99908.41
2023-04-18T11:59:55.009Z,99907.53
2023-04-18T12:02:26.772Z,99902.28
2023-04-18T12:04:59.200Z,99912.34
2023-04-18T12:07:37.245Z,99909.22
2023-04-18T12:10:10.187Z,99912.44
2023-04-18T12:12:37.190Z,99904.69
2023-04-18T12:15:08.498Z,99894.44
2023-04-18T12:17:37.551Z,99899.78
2023-04-18T12:20:09.713Z,99898.09
2023-04-18T12:22:42.074Z,99895.78
2023-04-18T12:25:26.203Z,99890.53
2023-04-18T12:27:58.369Z,99891.88
2023-04-18T12:30:31.230Z,99895.09
2023-04-18T12:33:04.118Z,99882.84
2023-04-18T12:35:31.988Z,99883.81
2023-04-18T12:38:01.538Z,99886.47
2023-04-18T12:40:30.639Z,99878.66
2023-04-18T12:42:57.658Z,99884.97
2023-04-18T12:45:25.013Z,99870.88
2023-04-18T12:47:52.834Z,99883.91
2023-04-18T12:50:25.136Z,99873.84
2023-04-18T12:52:54.248Z,99883.59
2023-04-18T12:55:22.953Z,99877.38
2023-04-18T12:57:52.433Z,99874.47
2023-04-18T13:00:19.494Z,99871.28
2023-04-18T13:02:46.597Z,99864.75
2023-04-18T13:05:15.415Z,99874.16
2023-04-18T13:07:43.392Z,99870.50
2023-04-18T13:10:12.958Z,99875.25
2023-04-18T13:12:41.262Z,99872.59
2023-04-18T13:15:11.961Z,99875.44
2023-04-18T13:17:39.939Z,99880.97
2023-04-18T13:20:10.863Z,99881.47
2023-04-18T13:22:38.861Z,99877.97
2023-04-18T13:25:08.270Z,99869.91
2023-04-18T13:27:35.221Z,99879.28
2023-04-18T13:30:02.656Z,99883.38
2023-04-18T13:32:30.549Z,99871.91
2023-04-18T13:34:57.619Z,99878.81
2023-04-18T13:37:24.645Z,99870.63
2023-04-18T13:39:51.683Z,99861.25
2023-04-18T13:42:19.512Z,99873.78
2023-04-18T13:44:47.649Z,99872.56
2023-04-18T13:47:14.696Z,99862.53
2023-04-18T13:49:41.856Z,99867.34
2023-04-18T13:52:09.226Z,99866.91
2023-04-18T13:54:37.715Z,99871.03
2023-04-18T13:57:11.705Z,99866.41
2023-04-18T13:59:42.614Z,99868.38
2023-04-18T14:02:10.194Z,99870.06
2023-04-18T14:04:38.159Z,99858.59
2023-04-18T14:07:06.426Z,99874.44
2023-04-18T14:09:33.730Z,99866.22
2023-04-18T14:12:00.679Z,99867.28
2023-04-18T14:14:29.380Z,99865.06
2023-04-18T14:16:56.641Z,99873.81
2023-04-18T14:19:24.077Z,99864.78
2023-04-18T14:21:51.131Z,99862.56
2023-04-18T14:24:18.218Z,99864.78
2023-04-18T14:26:45.284Z,99870.53
2023-04-18T14:29:12.630Z,99871.66
2023-04-18T14:31:39.994Z,99861.88
2023-04-18T14:34:08.521Z,99862.44
2023-04-18T14:36:36.025Z,99856.47
2023-04-18T14:39:03.629Z,99860.56
2023-04-18T14:41:30.576Z,99868.28
2023-04-18T14:43:57.653Z,99866.19
2023-04-18T14:46:24.660Z,99869.25
2023-04-18T14:48:51.586Z,99862.19
2023-04-18T14:51:21.434Z,99869.38
2023-04-18T14:53:49.570Z,99869.00
2023-04-18T14:56:21.025Z,99872.88
2023-04-18T14:58:48.332Z,99877.59
2023-04-18T15:01:15.712Z,99865.34
2023-04-18T15:03:42.880Z,99867.53
2023-04-18T15:06:10.025Z,99867.88
2023-04-18T15:08:37.205Z,99872.03
2023-04-18T15:11:08.277Z,99869.59
2023-04-18T15:13:35.802Z,99867.97
2023-04-18T15:16:03.556Z,99869.91
2023-04-18T15:18:30.806Z,99874.03
2023-04-18T15:20:59.975Z,99877.63
2023-04-18T15:23:27.675Z,99874.91
2023-04-18T15:25:54.856Z,99867.28
2023-04-18T15:28:21.982Z,99871.09
2023-04-18T15:30:48.923Z,99875.22
2023-04-18T15:33:17.538Z,99866.53
2023-04-18T15:35:45.236Z,99868.44
2023-04-18T15:38:12.320Z,99870.91
2023-04-18T15:40:39.420Z,99877.22
2023-04-18T15:43:06.590Z,99873.66
2023-04-18T15:45:33.610Z,99869.03
2023-04-18T15:48:00.737Z,99866.06
2023-04-18T15:50:27.885Z,99871.81
2023-04-18T15:52:56.455Z,99873.97
2023-04-18T15:55:24.708Z,99873.97
2023-04-18T15:57:51.794Z,99881.88
2023-04-18T16:00:19.843Z,99879.44
2023-04-18T16:02:47.397Z,99878.91
2023-04-18T16:05:15.487Z,99879.75
2023-04-18T16:07:42.831Z,99887.63
2023-04-18T16:10:11.293Z,99884.34
2023-04-18T16:12:39.757Z,99874.25
2023-04-18T16:15:08.765Z,99892.81
2023-04-18T16:17:37.751Z,99890.09
2023-04-18T16:20:09.696Z,99882.72
2023-04-18T16:22:37.924Z,99886.00
2023-04-18T16:25:06.681Z,99885.97
2023-04-18T16:27:33.684Z,99886.78
2023-04-18T16:30:01.268Z,99887.63
2023-04-18T16:32:30.645Z,99888.16
2023-04-18T16:34:57.977Z,99889.53
2023-04-18T16:37:24.968Z,99890.06
2023-04-18T16:39:51.894Z,99887.34
2023-04-18T16:42:19.071Z,99890.59
2023-04-18T16:44:47.409Z,99894.16
2023-04-18T16:47:14.454Z,99896.31
2023-04-18T16:49:41.754Z,99895.78
2023-04-18T16:52:08.686Z,99894.97
2023-04-18T16:54:36.464Z,99897.13
2023-04-18T16:57:05.445Z,99898.50
2023-04-18T16:59:32.555Z,99904.78
2023-04-18T17:01:59.868Z,99903.69
2023-04-18T17:04:27.400Z,99895.19
2023-04-18T17:06:54.736Z,99904.72
2023-04-18T17:09:21.958Z,99900.63
2023-04-18T17:11:49.317Z,99903.63
2023-04-18T17:14:17.558Z,99901.19
2023-04-18T17:16:44.904Z,99908.81
2023-04-18T17:19:12.295Z,99902.78
2023-04-18T17:21:39.419Z,99914.25
2023-04-18T17:24:07.206Z,99913.97
2023-04-18T17:26:35.854Z,99917.22
2023-04-18T17:29:06.457Z,99910.94
2023-04-18T17:31:34.411Z,99920.22
2023-04-18T17:34:01.659Z,99917.22
2023-04-18T17:36:28.765Z,99916.69
2023-04-18T17:38:56.481Z,99924.31
2023-04-18T17:41:23.438Z,99918.03
2023-04-18T17:43:53.484Z,99917.50
2023-04-18T17:46:21.189Z,99916.09
2023-04-18T17:48:49.466Z,99924.53
2023-04-18T17:51:16.651Z,99921.25
2023-04-18T17:53:43.760Z,99925.88
2023-04-18T17:56:10.941Z,99926.16
2023-04-18T17:58:37.947Z,99928.31
2023-04-18T18:01:17.403Z,99920.69
2023-04-18T18:03:45.109Z,99914.44
2023-04-18T18:06:13.385Z,99918.47
2023-04-18T18:08:42.703Z,99921.47
2023-04-18T18:11:10.950Z,99913.56
2023-04-18T18:13:39.305Z,99913.81
2023-04-18T18:16:07.435Z,99917.63
2023-04-18T18:18:34.919Z,99917.91
2023-04-18T18:21:02.111Z,99917.09
2023-04-18T18:23:29.346Z,99914.09
2023-04-18T18:25:57.079Z,99916.56
2023-04-18T18:28:24.211Z,99908.09
2023-04-18T18:30:51.301Z,99918.72
2023-04-18T18:33:19.115Z,99914.34
2023-04-18T18:35:47.211Z,99922.53
2023-04-18T18:38:14.411Z,99921.97
2023-04-18T18:40:41.690Z,99922.25
2023-04-18T18:43:09.012Z,99920.59
2023-04-18T18:45:36.020Z,99912.44
2023-04-18T18:48:04.677Z,99915.16
2023-04-18T18:50:32.066Z,99914.06
2023-04-18T18:53:01.910Z,99918.69
2023-04-18T18:55:30.047Z,99926.88
2023-04-18T18:57:57.175Z,99914.59
2023-04-18T19:00:24.903Z,99911.31
2023-04-18T19:02:52.283Z,99913.75
2023-04-18T19:05:19.636Z,99913.47
2023-04-18T19:07:46.786Z,99919.19
2023-04-18T19:10:13.929Z,99910.47
2023-04-18T19:12:40.903Z,99909.09
2023-04-18T19:15:08.546Z,99906.63
2023-04-18T19:17:35.988Z,99909.34
2023-04-18T19:20:03.450Z,99904.19
2023-04-18T19:22:31.257Z,99902.81
2023-04-18T19:25:00.484Z,99899.28
2023-04-18T19:27:27.465Z,99904.97
2023-04-18T19:29:54.414Z,99905.78
2023-04-18T19:32:21.993Z,99899.25
2023-04-18T19:34:49.096Z,99897.34
2023-04-18T19:37:16.292Z,99897.88
2023-04-18T19:39:43.310Z,99911.47
2023-04-18T19:42:10.472Z,99901.94
2023-04-18T19:44:37.436Z,99911.75
2023-04-18T19:47:04.680Z,99905.22
2023-04-18T19:49:31.688Z,99900.88
2023-04-18T19:51:58.796Z,99903.28
2023-04-18T19:54:26.016Z,99910.63
2023-04-18T19:56:53.040Z,99914.94
2023-04-18T19:59:20.042Z,99913.84
2023-04-18T20:01:47.698Z,99923.03
2023-04-18T20:04:14.903Z,99916.78
2023-04-18T20:06:42.773Z,99913.22
2023-04-18T20:09:15.421Z,99919.47
2023-04-18T20:11:43.564Z,99913.75
2023-04-18T20:14:11.035Z,99920.28
2023-04-18T20:16:39.190Z,99916.72
2023-04-18T20:19:06.228Z,99919.16
2023-04-18T20:21:33.205Z,99910.16
2023-04-18T20:24:00.290Z,99914.47
2023-04-18T20:26:27.349Z,99922.38
2023-04-18T20:28:54.531Z,99923.72
2023-04-18T20:31:21.865Z,99917.50
2023-04-18T20:33:48.874Z,99920.72
2023-04-18T20:36:17.841Z,99917.47
2023-04-18T20:38:44.958Z,99916.91
2023-04-18T20:41:18.265Z,99916.09
2023-04-18T20:43:46.973Z,99918.25
2023-04-18T20:46:14.368Z,99922.03
2023-04-18T20:48:41.770Z,99919.59
2023-04-18T20:51:09.223Z,99918.72
2023-04-18T20:53:36.270Z,99917.91
2023-04-18T20:56:03.314Z,99924.19
2023-04-18T20:58:30.402Z,99921.72
2023-04-18T21:00:57.729Z,99914.91
2023-04-18T21:03:25.269Z,99919.25
2023-04-18T21:05:52.858Z,99926.59
2023-04-18T21:08:19.950Z,99930.41
2023-04-18T21:10:46.950Z,99929.56
2023-04-18T21:13:14.160Z,99932.28
2023-04-18T21:15:42.350Z,99940.72
2023-04-18T21:18:09.541Z,99943.94
2023-04-18T21:20:37.025Z,99939.56
2023-04-18T21:23:04.072Z,99933.56
2023-04-18T21:25:31.371Z,99938.19
2023-04-18T21:27:58.690Z,99943.88
2023-04-18T21:30:25.962Z,99945.78
2023-04-18T21:32:53.080Z,99949.28
2023-04-18T21:35:22.019Z,99940.84
2023-04-18T21:37:51.371Z,99951.72
2023-04-18T21:40:18.493Z,99947.63
2023-04-18T21:42:46.186Z,99946.56
2023-04-18T21:45:13.888Z,99947.06
2023-04-18T21:47:41.102Z,99948.41
2023-04-18T21:50:09.461Z,99953.84
2023-04-18T21:52:37.534Z,99952.22
2023-04-18T21:55:05.147Z,99951.38
2023-04-18T21:57:32.349Z,99959.00
2023-04-18T21:59:59.329Z,99951.34
2023-04-18T22:02:27.274Z,99960.56
2023-04-18T22:04:54.681Z,99965.19
2023-04-18T22:07:21.631Z,99954.03
2023-04-18T22:09:48.839Z,99958.63
2023-04-18T22:12:15.953Z,99944.72
2023-04-18T22:14:48.367Z,99957.22
2023-04-18T22:17:15.577Z,99952.03
2023-04-18T22:19:44.582Z,99951.22
2023-04-18T22:22:11.779Z,99954.19
2023-04-18T22:24:38.775Z,99947.38
2023-04-18T22:27:06.003Z,99946.56
2023-04-18T22:29:33.245Z,99939.72
2023-04-18T22:32:00.336Z,99949.75
2023-04-18T22:34:27.362Z,99959.25
2023-04-18T22:36:54.544Z,99947.00
2023-04-18T22:39:21.522Z,99948.06
2023-04-18T22:41:48.463Z,99937.47
2023-04-18T22:44:15.764Z,99936.91
2023-04-18T22:46:43.158Z,99941.78
2023-04-18T22:49:10.259Z,99938.19
2023-04-18T22:51:38.342Z,99931.13
2023-04-18T22:54:05.593Z,99925.09
2023-04-18T22:56:32.555Z,99931.84
2023-04-18T22:58:59.802Z,99931.28
2023-04-18T23:01:26.834Z,99925.28
2023-04-18T23:03:53.919Z,99922.28
2023-04-18T23:06:21.139Z,99932.56
2023-04-18T23:08:48.226Z,99928.47
2023-04-18T23:11:15.918Z,99930.63
2023-04-18T23:13:42.924Z,99917.56
2023-04-18T23:16:09.865Z,99929.19
2023-04-18T23:18:36.936Z,99928.03
2023-04-18T23:21:04.199Z,99922.84
2023-04-18T23:23:31.292Z,99925.25
2023-04-18T23:25:58.388Z,99930.13
2023-04-18T23:28:25.680Z,99933.09
2023-04-18T23:30:52.819Z,99930.63
2023-04-18T23:33:19.818Z,99930.06
2023-04-18T23:35:46.695Z,99925.69
2023-04-18T23:38:13.650Z,99926.78
2023-04-18T23:40:41.039Z,99928.91
2023-04-18T23:43:08.129Z,99926.47
2023-04-18T23:45:36.082Z,99915.84
2023-04-18T23:48:03.340Z,99922.38
2023-04-18T23:50:30.505Z,99913.91
2023-04-18T23:52:57.633Z,99918.53
2023-04-18T23:55:24.846Z,99917.94
2023-04-18T23:57:51.927Z,99925.00
